sensor_id;sensor_type;location;lat;lon;timestamp;temperature;humidity
21171;DHT22;10743;52.160;20.910;2022-07-06T00:00:09;32.60;44.30
21171;DHT22;10743;52.160;20.910;2022-07-06T00:02:37;32.60;44.30
21171;DHT22;10743;52.160;20.910;2022-07-06T00:05:04;32.60;44.10
21171;DHT22;10743;52.160;20.910;2022-07-06T00:07:31;32.60;44.30
21171;DHT22;10743;52.160;20.910;2022-07-06T00:09:58;32.60;44.30
21171;DHT22;10743;52.160;20.910;2022-07-06T00:12:25;32.60;44.30
21171;DHT22;10743;52.160;20.910;2022-07-06T00:14:52;32.60;44.30
21171;DHT22;10743;52.160;20.910;2022-07-06T00:17:19;32.60;44.10
21171;DHT22;10743;52.160;20.910;2022-07-06T00:19:46;32.60;44.10
21171;DHT22;10743;52.160;20.910;2022-07-06T00:22:13;32.60;44.10
21171;DHT22;10743;52.160;20.910;2022-07-06T00:24:40;32.60;44.00
21171;DHT22;10743;52.160;20.910;2022-07-06T00:27:07;32.70;44.20
21171;DHT22;10743;52.160;20.910;2022-07-06T00:29:34;32.70;43.90
21171;DHT22;10743;52.160;20.910;2022-07-06T00:32:01;32.70;43.80
21171;DHT22;10743;52.160;20.910;2022-07-06T00:34:28;32.70;43.90
21171;DHT22;10743;52.160;20.910;2022-07-06T00:36:56;32.70;43.90
21171;DHT22;10743;52.160;20.910;2022-07-06T00:39:23;32.70;43.50
21171;DHT22;10743;52.160;20.910;2022-07-06T00:41:56;32.60;43.60
21171;DHT22;10743;52.160;20.910;2022-07-06T00:44:23;32.60;43.70
21171;DHT22;10743;52.160;20.910;2022-07-06T00:46:51;32.60;43.70
21171;DHT22;10743;52.160;20.910;2022-07-06T00:49:18;32.60;43.80
21171;DHT22;10743;52.160;20.910;2022-07-06T00:52:03;32.60;43.60
21171;DHT22;10743;52.160;20.910;2022-07-06T00:54:31;32.50;43.60
21171;DHT22;10743;52.160;20.910;2022-07-06T00:56:58;32.50;43.70
21171;DHT22;10743;52.160;20.910;2022-07-06T00:59:27;32.50;43.70
21171;DHT22;10743;52.160;20.910;2022-07-06T01:01:54;32.50;43.60
21171;DHT22;10743;52.160;20.910;2022-07-06T01:04:21;32.50;43.50
21171;DHT22;10743;52.160;20.910;2022-07-06T01:06:48;32.50;43.50
21171;DHT22;10743;52.160;20.910;2022-07-06T01:09:16;32.40;43.50
21171;DHT22;10743;52.160;20.910;2022-07-06T01:11:43;32.40;43.50
21171;DHT22;10743;52.160;20.910;2022-07-06T01:14:12;32.40;43.30
21171;DHT22;10743;52.160;20.910;2022-07-06T01:16:41;32.40;43.30
21171;DHT22;10743;52.160;20.910;2022-07-06T01:19:08;32.40;43.20
21171;DHT22;10743;52.160;20.910;2022-07-06T01:21:38;32.40;43.40
21171;DHT22;10743;52.160;20.910;2022-07-06T01:24:05;32.40;43.30
21171;DHT22;10743;52.160;20.910;2022-07-06T01:26:32;32.40;43.50
21171;DHT22;10743;52.160;20.910;2022-07-06T01:28:59;32.40;43.40
21171;DHT22;10743;52.160;20.910;2022-07-06T01:31:27;32.40;43.50
21171;DHT22;10743;52.160;20.910;2022-07-06T01:33:55;32.40;43.50
21171;DHT22;10743;52.160;20.910;2022-07-06T01:36:23;32.40;43.70
21171;DHT22;10743;52.160;20.910;2022-07-06T01:38:52;32.30;43.60
21171;DHT22;10743;52.160;20.910;2022-07-06T01:41:21;32.30;43.50
21171;DHT22;10743;52.160;20.910;2022-07-06T01:43:48;32.30;43.60
21171;DHT22;10743;52.160;20.910;2022-07-06T01:46:16;32.30;43.70
21171;DHT22;10743;52.160;20.910;2022-07-06T01:48:46;32.30;43.70
21171;DHT22;10743;52.160;20.910;2022-07-06T01:51:13;32.30;43.60
21171;DHT22;10743;52.160;20.910;2022-07-06T01:53:41;32.30;43.80
21171;DHT22;10743;52.160;20.910;2022-07-06T01:56:10;32.20;43.60
21171;DHT22;10743;52.160;20.910;2022-07-06T01:58:38;32.20;43.70
21171;DHT22;10743;52.160;20.910;2022-07-06T02:01:09;32.20;43.60
21171;DHT22;10743;52.160;20.910;2022-07-06T02:03:37;32.20;43.70
21171;DHT22;10743;52.160;20.910;2022-07-06T02:06:05;32.20;43.60
21171;DHT22;10743;52.160;20.910;2022-07-06T02:08:33;32.20;43.50
21171;DHT22;10743;52.160;20.910;2022-07-06T02:11:05;32.20;43.50
21171;DHT22;10743;52.160;20.910;2022-07-06T02:13:35;32.20;43.50
21171;DHT22;10743;52.160;20.910;2022-07-06T02:16:05;32.20;44.20
21171;DHT22;10743;52.160;20.910;2022-07-06T02:18:32;32.20;43.50
21171;DHT22;10743;52.160;20.910;2022-07-06T02:21:00;32.20;43.30
21171;DHT22;10743;52.160;20.910;2022-07-06T02:23:27;32.20;43.30
21171;DHT22;10743;52.160;20.910;2022-07-06T02:25:54;32.20;43.30
21171;DHT22;10743;52.160;20.910;2022-07-06T02:28:23;32.20;43.10
21171;DHT22;10743;52.160;20.910;2022-07-06T02:30:51;32.20;43.00
21171;DHT22;10743;52.160;20.910;2022-07-06T02:33:18;32.20;43.10
21171;DHT22;10743;52.160;20.910;2022-07-06T02:35:46;32.20;43.20
21171;DHT22;10743;52.160;20.910;2022-07-06T02:38:13;32.20;43.10
21171;DHT22;10743;52.160;20.910;2022-07-06T02:40:40;32.20;43.10
21171;DHT22;10743;52.160;20.910;2022-07-06T02:43:07;32.20;43.40
21171;DHT22;10743;52.160;20.910;2022-07-06T02:45:36;32.00;43.20
21171;DHT22;10743;52.160;20.910;2022-07-06T02:48:04;32.20;43.40
21171;DHT22;10743;52.160;20.910;2022-07-06T02:50:32;32.10;43.30
21171;DHT22;10743;52.160;20.910;2022-07-06T02:52:59;32.10;43.40
21171;DHT22;10743;52.160;20.910;2022-07-06T02:55:29;32.10;44.10
21171;DHT22;10743;52.160;20.910;2022-07-06T02:57:56;32.10;43.50
21171;DHT22;10743;52.160;20.910;2022-07-06T03:00:25;32.10;43.40
21171;DHT22;10743;52.160;20.910;2022-07-06T03:02:53;32.10;43.40
21171;DHT22;10743;52.160;20.910;2022-07-06T03:05:21;32.10;43.50
21171;DHT22;10743;52.160;20.910;2022-07-06T03:07:48;32.00;43.30
21171;DHT22;10743;52.160;20.910;2022-07-06T03:10:15;32.00;43.40
21171;DHT22;10743;52.160;20.910;2022-07-06T03:12:43;32.00;43.50
21171;DHT22;10743;52.160;20.910;2022-07-06T03:15:10;32.00;43.50
21171;DHT22;10743;52.160;20.910;2022-07-06T03:17:42;32.00;43.80
21171;DHT22;10743;52.160;20.910;2022-07-06T03:20:10;32.00;43.80
21171;DHT22;10743;52.160;20.910;2022-07-06T03:22:38;32.00;43.70
21171;DHT22;10743;52.160;20.910;2022-07-06T03:25:05;32.00;43.90
21171;DHT22;10743;52.160;20.910;2022-07-06T03:27:34;31.90;43.80
21171;DHT22;10743;52.160;20.910;2022-07-06T03:30:03;32.00;43.90
21171;DHT22;10743;52.160;20.910;2022-07-06T03:32:32;32.00;44.00
21171;DHT22;10743;52.160;20.910;2022-07-06T03:35:02;31.90;44.10
21171;DHT22;10743;52.160;20.910;2022-07-06T03:37:31;31.90;43.90
21171;DHT22;10743;52.160;20.910;2022-07-06T03:39:59;32.00;43.90
21171;DHT22;10743;52.160;20.910;2022-07-06T03:42:27;32.00;43.90
21171;DHT22;10743;52.160;20.910;2022-07-06T03:44:54;32.00;43.90
21171;DHT22;10743;52.160;20.910;2022-07-06T03:47:21;31.90;43.90
21171;DHT22;10743;52.160;20.910;2022-07-06T03:49:49;31.90;43.80
21171;DHT22;10743;52.160;20.910;2022-07-06T03:52:16;32.00;43.90
21171;DHT22;10743;52.160;20.910;2022-07-06T03:54:49;32.00;44.10
21171;DHT22;10743;52.160;20.910;2022-07-06T03:57:21;32.00;44.10
21171;DHT22;10743;52.160;20.910;2022-07-06T03:59:49;32.00;44.00
21171;DHT22;10743;52.160;20.910;2022-07-06T04:02:16;32.00;44.00
21171;DHT22;10743;52.160;20.910;2022-07-06T04:04:43;32.00;44.20
21171;DHT22;10743;52.160;20.910;2022-07-06T04:07:11;32.00;44.20
21171;DHT22;10743;52.160;20.910;2022-07-06T04:09:38;32.00;44.30
21171;DHT22;10743;52.160;20.910;2022-07-06T04:12:05;32.00;44.50
21171;DHT22;10743;52.160;20.910;2022-07-06T04:14:34;32.00;44.30
21171;DHT22;10743;52.160;20.910;2022-07-06T04:17:03;31.90;44.20
21171;DHT22;10743;52.160;20.910;2022-07-06T04:19:51;32.00;44.20
21171;DHT22;10743;52.160;20.910;2022-07-06T04:22:18;32.00;44.20
21171;DHT22;10743;52.160;20.910;2022-07-06T04:24:45;32.00;44.00
21171;DHT22;10743;52.160;20.910;2022-07-06T04:27:12;32.10;44.10
21171;DHT22;10743;52.160;20.910;2022-07-06T04:29:39;32.10;43.90
21171;DHT22;10743;52.160;20.910;2022-07-06T04:32:07;32.10;43.70
21171;DHT22;10743;52.160;20.910;2022-07-06T04:34:34;32.10;43.80
21171;DHT22;10743;52.160;20.910;2022-07-06T04:37:01;32.10;43.60
21171;DHT22;10743;52.160;20.910;2022-07-06T04:39:29;32.10;43.50
21171;DHT22;10743;52.160;20.910;2022-07-06T04:41:59;32.20;43.50
21171;DHT22;10743;52.160;20.910;2022-07-06T04:44:26;32.20;43.40
21171;DHT22;10743;52.160;20.910;2022-07-06T04:46:53;32.20;43.40
21171;DHT22;10743;52.160;20.910;2022-07-06T04:49:21;32.20;43.40
21171;DHT22;10743;52.160;20.910;2022-07-06T04:51:48;32.20;43.40
21171;DHT22;10743;52.160;20.910;2022-07-06T04:54:15;32.20;43.20
21171;DHT22;10743;52.160;20.910;2022-07-06T04:56:43;32.30;43.10
21171;DHT22;10743;52.160;20.910;2022-07-06T04:59:10;32.30;43.20
21171;DHT22;10743;52.160;20.910;2022-07-06T05:01:37;32.20;43.00
21171;DHT22;10743;52.160;20.910;2022-07-06T05:04:04;32.20;42.90
21171;DHT22;10743;52.160;20.910;2022-07-06T05:06:32;32.20;43.10
21171;DHT22;10743;52.160;20.910;2022-07-06T05:09:00;32.20;43.00
21171;DHT22;10743;52.160;20.910;2022-07-06T05:11:29;32.20;43.00
21171;DHT22;10743;52.160;20.910;2022-07-06T05:13:56;32.20;43.30
21171;DHT22;10743;52.160;20.910;2022-07-06T05:16:24;32.20;43.40
21171;DHT22;10743;52.160;20.910;2022-07-06T05:18:51;32.20;43.40
21171;DHT22;10743;52.160;20.910;2022-07-06T05:21:18;32.20;43.30
21171;DHT22;10743;52.160;20.910;2022-07-06T05:23:45;32.30;43.40
21171;DHT22;10743;52.160;20.910;2022-07-06T05:26:12;32.30;43.20
21171;DHT22;10743;52.160;20.910;2022-07-06T05:28:39;32.30;43.30
21171;DHT22;10743;52.160;20.910;2022-07-06T05:31:11;32.30;43.10
21171;DHT22;10743;52.160;20.910;2022-07-06T05:33:39;32.30;43.20
21171;DHT22;10743;52.160;20.910;2022-07-06T05:36:07;32.30;43.30
21171;DHT22;10743;52.160;20.910;2022-07-06T05:38:34;32.30;43.70
21171;DHT22;10743;52.160;20.910;2022-07-06T05:41:02;32.30;43.50
21171;DHT22;10743;52.160;20.910;2022-07-06T05:43:29;32.30;43.40
21171;DHT22;10743;52.160;20.910;2022-07-06T05:45:58;32.40;43.60
21171;DHT22;10743;52.160;20.910;2022-07-06T05:48:29;32.30;43.40
21171;DHT22;10743;52.160;20.910;2022-07-06T05:51:15;32.30;43.50
21171;DHT22;10743;52.160;20.910;2022-07-06T05:53:43;32.40;44.20
21171;DHT22;10743;52.160;20.910;2022-07-06T05:56:10;32.40;44.20
21171;DHT22;10743;52.160;20.910;2022-07-06T05:58:38;32.40;43.90
21171;DHT22;10743;52.160;20.910;2022-07-06T06:01:05;32.50;43.90
21171;DHT22;10743;52.160;20.910;2022-07-06T06:03:35;32.70;43.80
21171;DHT22;10743;52.160;20.910;2022-07-06T06:06:03;32.50;43.40
21171;DHT22;10743;52.160;20.910;2022-07-06T06:08:30;32.50;43.30
21171;DHT22;10743;52.160;20.910;2022-07-06T06:10:57;32.50;43.30
21171;DHT22;10743;52.160;20.910;2022-07-06T06:13:27;32.50;43.50
21171;DHT22;10743;52.160;20.910;2022-07-06T06:15:54;32.50;43.60
21171;DHT22;10743;52.160;20.910;2022-07-06T06:18:21;32.60;43.60
21171;DHT22;10743;52.160;20.910;2022-07-06T06:20:48;32.60;43.50
21171;DHT22;10743;52.160;20.910;2022-07-06T06:23:16;32.60;43.50
21171;DHT22;10743;52.160;20.910;2022-07-06T06:25:43;32.60;44.50
21171;DHT22;10743;52.160;20.910;2022-07-06T06:28:11;32.60;43.70
21171;DHT22;10743;52.160;20.910;2022-07-06T06:30:38;32.60;43.80
21171;DHT22;10743;52.160;20.910;2022-07-06T06:33:12;32.60;43.80
21171;DHT22;10743;52.160;20.910;2022-07-06T06:35:45;32.70;43.70
21171;DHT22;10743;52.160;20.910;2022-07-06T06:38:14;32.70;43.80
21171;DHT22;10743;52.160;20.910;2022-07-06T06:40:41;32.70;44.10
21171;DHT22;10743;52.160;20.910;2022-07-06T06:43:09;32.70;44.10
21171;DHT22;10743;52.160;20.910;2022-07-06T06:45:43;32.70;43.90
21171;DHT22;10743;52.160;20.910;2022-07-06T06:48:11;32.80;43.90
21171;DHT22;10743;52.160;20.910;2022-07-06T06:50:44;32.70;43.50
21171;DHT22;10743;52.160;20.910;2022-07-06T06:53:11;32.70;43.80
21171;DHT22;10743;52.160;20.910;2022-07-06T06:55:39;32.70;43.60
21171;DHT22;10743;52.160;20.910;2022-07-06T06:58:06;32.80;43.90
21171;DHT22;10743;52.160;20.910;2022-07-06T07:00:33;32.80;44.10
21171;DHT22;10743;52.160;20.910;2022-07-06T07:03:00;32.80;43.90
21171;DHT22;10743;52.160;20.910;2022-07-06T07:05:27;32.80;44.20
21171;DHT22;10743;52.160;20.910;2022-07-06T07:07:54;32.80;44.30
21171;DHT22;10743;52.160;20.910;2022-07-06T07:10:31;32.90;44.00
21171;DHT22;10743;52.160;20.910;2022-07-06T07:12:59;32.90;44.20
21171;DHT22;10743;52.160;20.910;2022-07-06T07:15:26;32.90;44.10
21171;DHT22;10743;52.160;20.910;2022-07-06T07:17:53;33.00;44.10
21171;DHT22;10743;52.160;20.910;2022-07-06T07:20:20;33.00;43.90
21171;DHT22;10743;52.160;20.910;2022-07-06T07:22:47;33.00;43.90
21171;DHT22;10743;52.160;20.910;2022-07-06T07:25:14;33.00;43.80
21171;DHT22;10743;52.160;20.910;2022-07-06T07:27:41;33.00;43.90
21171;DHT22;10743;52.160;20.910;2022-07-06T07:30:10;33.00;43.70
21171;DHT22;10743;52.160;20.910;2022-07-06T07:32:37;33.00;44.00
21171;DHT22;10743;52.160;20.910;2022-07-06T07:35:07;33.10;43.90
21171;DHT22;10743;52.160;20.910;2022-07-06T07:37:34;33.20;43.80
21171;DHT22;10743;52.160;20.910;2022-07-06T07:40:01;33.20;43.60
21171;DHT22;10743;52.160;20.910;2022-07-06T07:42:29;33.20;42.70
21171;DHT22;10743;52.160;20.910;2022-07-06T07:44:56;33.20;42.40
21171;DHT22;10743;52.160;20.910;2022-07-06T07:47:23;33.20;42.20
21171;DHT22;10743;52.160;20.910;2022-07-06T07:49:50;33.30;42.40
21171;DHT22;10743;52.160;20.910;2022-07-06T07:52:17;33.30;41.90
21171;DHT22;10743;52.160;20.910;2022-07-06T07:54:44;33.30;42.20
21171;DHT22;10743;52.160;20.910;2022-07-06T07:57:23;33.40;42.40
21171;DHT22;10743;52.160;20.910;2022-07-06T07:59:50;33.40;42.80
21171;DHT22;10743;52.160;20.910;2022-07-06T08:02:17;33.50;42.50
21171;DHT22;10743;52.160;20.910;2022-07-06T08:04:44;33.50;42.60
21171;DHT22;10743;52.160;20.910;2022-07-06T08:07:11;33.50;42.10
21171;DHT22;10743;52.160;20.910;2022-07-06T08:09:38;33.50;42.20
21171;DHT22;10743;52.160;20.910;2022-07-06T08:12:06;33.50;41.90
21171;DHT22;10743;52.160;20.910;2022-07-06T08:14:33;33.50;41.20
21171;DHT22;10743;52.160;20.910;2022-07-06T08:17:00;33.60;41.40
21171;DHT22;10743;52.160;20.910;2022-07-06T08:19:28;33.60;41.60
21171;DHT22;10743;52.160;20.910;2022-07-06T08:21:55;33.60;41.60
21171;DHT22;10743;52.160;20.910;2022-07-06T08:24:22;33.70;41.20
21171;DHT22;10743;52.160;20.910;2022-07-06T08:26:49;33.70;39.40
21171;DHT22;10743;52.160;20.910;2022-07-06T08:29:16;33.80;39.70
21171;DHT22;10743;52.160;20.910;2022-07-06T08:31:43;33.80;40.60
21171;DHT22;10743;52.160;20.910;2022-07-06T08:34:30;34.20;40.10
21171;DHT22;10743;52.160;20.910;2022-07-06T08:37:00;33.80;40.00
21171;DHT22;10743;52.160;20.910;2022-07-06T08:39:27;33.90;39.00
21171;DHT22;10743;52.160;20.910;2022-07-06T08:41:55;33.90;39.30
21171;DHT22;10743;52.160;20.910;2022-07-06T08:44:23;33.90;39.30
21171;DHT22;10743;52.160;20.910;2022-07-06T08:46:52;34.00;39.10
21171;DHT22;10743;52.160;20.910;2022-07-06T08:49:22;34.00;38.30
21171;DHT22;10743;52.160;20.910;2022-07-06T08:51:50;34.10;37.70
21171;DHT22;10743;52.160;20.910;2022-07-06T08:54:18;34.10;37.70
21171;DHT22;10743;52.160;20.910;2022-07-06T08:56:46;34.20;37.90
21171;DHT22;10743;52.160;20.910;2022-07-06T08:59:15;34.20;38.40
21171;DHT22;10743;52.160;20.910;2022-07-06T09:01:44;34.20;38.90
21171;DHT22;10743;52.160;20.910;2022-07-06T09:04:15;34.20;37.40
21171;DHT22;10743;52.160;20.910;2022-07-06T09:06:44;34.20;36.60
21171;DHT22;10743;52.160;20.910;2022-07-06T09:09:19;34.30;37.40
21171;DHT22;10743;52.160;20.910;2022-07-06T09:11:48;34.30;37.80
21171;DHT22;10743;52.160;20.910;2022-07-06T09:14:16;34.30;37.90
21171;DHT22;10743;52.160;20.910;2022-07-06T09:16:44;35.10;37.30
21171;DHT22;10743;52.160;20.910;2022-07-06T09:19:12;34.40;38.40
21171;DHT22;10743;52.160;20.910;2022-07-06T09:21:40;34.40;37.90
21171;DHT22;10743;52.160;20.910;2022-07-06T09:24:11;34.40;37.30
21171;DHT22;10743;52.160;20.910;2022-07-06T09:26:40;34.40;38.00
21171;DHT22;10743;52.160;20.910;2022-07-06T09:29:08;34.40;38.40
21171;DHT22;10743;52.160;20.910;2022-07-06T09:31:37;34.30;37.60
21171;DHT22;10743;52.160;20.910;2022-07-06T09:34:09;34.40;37.10
21171;DHT22;10743;52.160;20.910;2022-07-06T09:36:41;34.40;37.40
21171;DHT22;10743;52.160;20.910;2022-07-06T09:39:29;34.40;37.60
21171;DHT22;10743;52.160;20.910;2022-07-06T09:41:57;34.30;37.30
21171;DHT22;10743;52.160;20.910;2022-07-06T09:44:29;34.30;37.10
21171;DHT22;10743;52.160;20.910;2022-07-06T09:47:04;34.30;35.50
21171;DHT22;10743;52.160;20.910;2022-07-06T09:49:37;34.30;35.80
21171;DHT22;10743;52.160;20.910;2022-07-06T09:52:07;34.30;35.90
21171;DHT22;10743;52.160;20.910;2022-07-06T09:54:36;34.30;35.50
21171;DHT22;10743;52.160;20.910;2022-07-06T09:57:06;34.40;36.10
21171;DHT22;10743;52.160;20.910;2022-07-06T09:59:35;34.40;36.00
21171;DHT22;10743;52.160;20.910;2022-07-06T10:02:05;34.30;36.20
21171;DHT22;10743;52.160;20.910;2022-07-06T10:04:33;34.50;36.20
21171;DHT22;10743;52.160;20.910;2022-07-06T10:07:01;34.50;35.00
21171;DHT22;10743;52.160;20.910;2022-07-06T10:09:29;34.50;34.50
21171;DHT22;10743;52.160;20.910;2022-07-06T10:12:01;34.60;34.00
21171;DHT22;10743;52.160;20.910;2022-07-06T10:14:31;34.70;34.40
21171;DHT22;10743;52.160;20.910;2022-07-06T10:17:02;34.70;33.50
21171;DHT22;10743;52.160;20.910;2022-07-06T10:19:31;34.80;34.30
21171;DHT22;10743;52.160;20.910;2022-07-06T10:22:00;34.80;34.40
21171;DHT22;10743;52.160;20.910;2022-07-06T10:24:30;34.80;33.30
21171;DHT22;10743;52.160;20.910;2022-07-06T10:26:57;34.80;32.70
21171;DHT22;10743;52.160;20.910;2022-07-06T10:29:24;34.90;32.90
21171;DHT22;10743;52.160;20.910;2022-07-06T10:31:52;34.90;33.30
21171;DHT22;10743;52.160;20.910;2022-07-06T10:34:21;34.90;33.50
21171;DHT22;10743;52.160;20.910;2022-07-06T10:36:50;35.00;33.30
21171;DHT22;10743;52.160;20.910;2022-07-06T10:39:38;35.00;32.90
21171;DHT22;10743;52.160;20.910;2022-07-06T10:42:47;35.10;33.70
21171;DHT22;10743;52.160;20.910;2022-07-06T10:50:48;35.20;34.00
21171;DHT22;10743;52.160;20.910;2022-07-06T10:53:22;35.30;32.80
21171;DHT22;10743;52.160;20.910;2022-07-06T10:55:52;35.30;31.90
21171;DHT22;10743;52.160;20.910;2022-07-06T11:01:18;35.30;31.70
21171;DHT22;10743;52.160;20.910;2022-07-06T11:04:06;35.40;31.00
21171;DHT22;10743;52.160;20.910;2022-07-06T11:06:38;35.40;31.70
21171;DHT22;10743;52.160;20.910;2022-07-06T11:09:08;35.40;32.00
21171;DHT22;10743;52.160;20.910;2022-07-06T11:14:13;35.50;31.40
21171;DHT22;10743;52.160;20.910;2022-07-06T11:19:17;35.60;29.80
21171;DHT22;10743;52.160;20.910;2022-07-06T11:21:55;35.60;31.10
21171;DHT22;10743;52.160;20.910;2022-07-06T11:24:28;35.70;29.60
21171;DHT22;10743;52.160;20.910;2022-07-06T11:26:58;35.80;31.00
21171;DHT22;10743;52.160;20.910;2022-07-06T11:29:27;35.90;30.10
21171;DHT22;10743;52.160;20.910;2022-07-06T11:31:57;35.90;31.70
21171;DHT22;10743;52.160;20.910;2022-07-06T11:34:27;36.00;30.30
21171;DHT22;10743;52.160;20.910;2022-07-06T11:39:27;36.10;30.70
21171;DHT22;10743;52.160;20.910;2022-07-06T11:41:55;36.20;30.80
21171;DHT22;10743;52.160;20.910;2022-07-06T11:44:23;36.20;30.00
21171;DHT22;10743;52.160;20.910;2022-07-06T11:46:51;36.30;29.80
21171;DHT22;10743;52.160;20.910;2022-07-06T11:49:18;36.30;30.30
21171;DHT22;10743;52.160;20.910;2022-07-06T11:51:45;36.30;30.30
21171;DHT22;10743;52.160;20.910;2022-07-06T11:54:16;36.30;30.60
21171;DHT22;10743;52.160;20.910;2022-07-06T11:56:51;36.30;29.70
21171;DHT22;10743;52.160;20.910;2022-07-06T12:02:01;36.20;29.80
21171;DHT22;10743;52.160;20.910;2022-07-06T12:04:35;36.10;29.60
21171;DHT22;10743;52.160;20.910;2022-07-06T12:07:14;36.10;30.30
21171;DHT22;10743;52.160;20.910;2022-07-06T12:09:45;36.10;30.20
21171;DHT22;10743;52.160;20.910;2022-07-06T12:12:13;36.10;31.00
21171;DHT22;10743;52.160;20.910;2022-07-06T12:14:41;36.10;30.10
21171;DHT22;10743;52.160;20.910;2022-07-06T12:17:10;36.10;30.60
21171;DHT22;10743;52.160;20.910;2022-07-06T12:19:40;36.50;30.20
21171;DHT22;10743;52.160;20.910;2022-07-06T12:22:08;36.20;30.20
